createdAt,value
2022-07-26T00:00:16.950Z,6.47
2022-07-26T00:05:19.067Z,6.07
2022-07-26T00:07:49.306Z,6.25
2022-07-26T00:10:20.737Z,6.18
2022-07-26T00:12:52.165Z,6.20
2022-07-26T00:15:22.150Z,6.73
2022-07-26T00:17:52.149Z,7.00
2022-07-26T00:20:22.188Z,6.72
2022-07-26T00:22:57.871Z,6.22
2022-07-26T00:25:29.767Z,6.38
2022-07-26T00:27:59.727Z,6.47
2022-07-26T00:30:30.161Z,6.72
2022-07-26T00:33:00.145Z,6.60
2022-07-26T00:35:30.106Z,6.18
2022-07-26T00:38:01.159Z,6.15
2022-07-26T00:40:32.669Z,6.80
2022-07-26T00:43:02.638Z,6.37
2022-07-26T00:45:32.737Z,6.75
2022-07-26T00:48:02.635Z,5.68
2022-07-26T00:53:07.009Z,6.30
2022-07-26T00:55:37.144Z,6.07
2022-07-26T00:58:07.307Z,5.55
2022-07-26T01:00:37.397Z,5.97
2022-07-26T01:03:07.417Z,5.63
2022-07-26T01:05:37.685Z,6.03
2022-07-26T01:08:09.448Z,6.20
2022-07-26T01:10:40.425Z,6.65
2022-07-26T01:13:11.292Z,5.72
2022-07-26T01:15:41.350Z,4.97
2022-07-26T01:18:11.334Z,5.28
2022-07-26T01:20:42.064Z,5.97
2022-07-26T01:23:13.529Z,6.30
2022-07-26T01:25:45.895Z,5.77
2022-07-26T01:28:20.176Z,5.53
2022-07-26T01:30:50.950Z,5.28
2022-07-26T01:33:21.300Z,5.70
2022-07-26T01:35:51.255Z,6.00
2022-07-26T01:38:22.709Z,6.18
2022-07-26T01:40:52.587Z,6.50
2022-07-26T01:43:22.617Z,5.22
2022-07-26T01:45:52.670Z,5.70
2022-07-26T01:48:22.611Z,5.93
2022-07-26T01:50:52.518Z,5.72
2022-07-26T01:53:24.157Z,6.30
2022-07-26T01:55:54.245Z,5.47
2022-07-26T01:58:24.342Z,6.60
2022-07-26T02:00:54.505Z,5.47
2022-07-26T02:03:24.368Z,5.47
2022-07-26T02:05:54.206Z,5.40
2022-07-26T02:08:25.733Z,5.35
2022-07-26T02:11:03.352Z,6.17
2022-07-26T02:13:35.997Z,6.00
2022-07-26T02:16:09.400Z,5.57
2022-07-26T02:18:40.912Z,5.78
2022-07-26T02:21:11.395Z,6.03
2022-07-26T02:23:43.048Z,5.20
2022-07-26T02:26:12.933Z,5.70
2022-07-26T02:28:42.795Z,6.25
2022-07-26T02:31:15.614Z,6.32
2022-07-26T02:33:45.695Z,5.63
2022-07-26T02:36:15.647Z,6.18
2022-07-26T02:38:47.091Z,5.72
2022-07-26T02:41:16.970Z,5.63
2022-07-26T02:43:47.031Z,6.38
2022-07-26T02:46:17.097Z,6.25
2022-07-26T02:48:47.121Z,5.68
2022-07-26T02:51:17.815Z,6.38
2022-07-26T02:53:49.291Z,5.50
2022-07-26T02:56:19.332Z,6.37
2022-07-26T02:58:49.289Z,5.93
2022-07-26T03:01:19.236Z,6.60
2022-07-26T03:03:51.043Z,6.97
2022-07-26T03:06:21.376Z,6.30
2022-07-26T03:08:52.911Z,5.97
2022-07-26T03:11:22.925Z,6.70
2022-07-26T03:13:52.928Z,6.55
2022-07-26T03:16:26.095Z,5.72
2022-07-26T03:18:59.774Z,6.60
2022-07-26T03:21:29.905Z,6.40
2022-07-26T03:24:01.341Z,6.68
2022-07-26T03:26:31.276Z,6.37
2022-07-26T03:29:01.247Z,6.35
2022-07-26T03:31:31.304Z,6.13
2022-07-26T03:34:03.306Z,6.28
2022-07-26T03:39:04.686Z,7.18
2022-07-26T03:41:34.580Z,8.37
2022-07-26T03:44:04.916Z,8.02
2022-07-26T03:46:35.205Z,7.75
2022-07-26T03:49:05.366Z,7.95
2022-07-26T03:54:07.530Z,6.82
2022-07-26T03:59:09.576Z,7.60
2022-07-26T04:01:42.729Z,6.10
2022-07-26T04:04:13.726Z,6.10
2022-07-26T04:06:44.106Z,6.30
2022-07-26T04:09:17.311Z,6.82
2022-07-26T04:11:48.969Z,7.43
2022-07-26T04:14:19.205Z,6.85
2022-07-26T04:16:49.307Z,6.60
2022-07-26T04:19:19.632Z,6.15
2022-07-26T04:21:49.627Z,6.13
2022-07-26T04:24:21.208Z,6.65
2022-07-26T04:26:55.662Z,6.68
2022-07-26T04:29:25.654Z,6.28
2022-07-26T04:31:55.611Z,6.53
2022-07-26T04:34:25.486Z,6.55
2022-07-26T04:36:55.503Z,6.10
2022-07-26T04:39:26.925Z,7.25
2022-07-26T04:41:56.889Z,6.47
2022-07-26T04:44:26.833Z,6.20
2022-07-26T04:46:56.817Z,6.72
2022-07-26T04:49:26.820Z,6.53
2022-07-26T04:51:59.402Z,6.50
2022-07-26T04:54:31.278Z,6.55
2022-07-26T04:57:01.224Z,6.25
2022-07-26T04:59:32.594Z,5.97
2022-07-26T05:02:03.037Z,6.85
2022-07-26T05:04:33.175Z,6.70
2022-07-26T05:07:03.956Z,6.10
2022-07-26T05:09:35.348Z,6.05
2022-07-26T05:12:05.999Z,5.83
2022-07-26T05:14:37.749Z,6.47
2022-07-26T05:17:10.565Z,5.57
2022-07-26T05:22:10.429Z,5.55
2022-07-26T05:24:41.849Z,6.00
2022-07-26T05:27:12.029Z,6.53
2022-07-26T05:29:41.989Z,7.13
2022-07-26T05:32:12.025Z,5.03
2022-07-26T05:34:42.029Z,4.90
2022-07-26T05:37:12.827Z,5.93
2022-07-26T05:39:44.349Z,5.15
2022-07-26T05:42:14.347Z,5.03
2022-07-26T05:44:44.584Z,5.10
2022-07-26T05:47:14.538Z,5.28
2022-07-26T05:49:44.592Z,5.75
2022-07-26T05:52:14.488Z,5.10
2022-07-26T05:54:46.225Z,5.28
2022-07-26T05:57:16.190Z,4.88
2022-07-26T05:59:46.265Z,5.50
2022-07-26T06:02:16.263Z,5.38
2022-07-26T06:04:47.618Z,5.72
2022-07-26T06:07:18.009Z,5.22
2022-07-26T06:09:49.548Z,5.30
2022-07-26T06:12:19.496Z,4.65
2022-07-26T06:14:49.589Z,5.28
2022-07-26T06:17:19.622Z,5.18
2022-07-26T06:19:49.791Z,5.03
2022-07-26T06:22:19.786Z,5.15
2022-07-26T06:24:51.356Z,5.55
2022-07-26T06:27:21.408Z,6.20
2022-07-26T06:29:53.046Z,5.30
2022-07-26T06:32:23.052Z,5.28
2022-07-26T06:34:52.989Z,5.53
2022-07-26T06:37:22.930Z,5.70
2022-07-26T06:39:54.910Z,5.38
2022-07-26T06:42:24.952Z,5.28
2022-07-26T06:44:54.891Z,5.10
2022-07-26T06:47:24.746Z,6.03
2022-07-26T06:49:55.174Z,6.28
2022-07-26T06:54:07.416Z,6.10
2022-07-26T06:56:37.486Z,6.30
2022-07-26T06:59:09.483Z,5.57
2022-07-26T07:01:58.167Z,5.43
2022-07-26T07:04:29.955Z,6.60
2022-07-26T07:07:05.248Z,6.30
2022-07-26T07:09:39.072Z,5.72
2022-07-26T07:12:10.906Z,5.13
2022-07-26T07:14:41.216Z,6.18
2022-07-26T07:17:14.999Z,6.22
2022-07-26T07:19:48.469Z,5.60
2022-07-26T07:22:18.569Z,6.10
2022-07-26T07:24:49.953Z,6.10
2022-07-26T07:27:20.269Z,6.15
2022-07-26T07:29:50.844Z,6.10
2022-07-26T07:32:20.954Z,5.55
2022-07-26T07:34:51.546Z,5.55
2022-07-26T07:37:22.223Z,5.38
2022-07-26T07:39:53.505Z,6.10
2022-07-26T07:42:24.090Z,5.50
2022-07-26T07:44:54.156Z,5.90
2022-07-26T07:47:24.023Z,6.53
2022-07-26T07:49:53.971Z,5.55
2022-07-26T07:52:23.947Z,5.60
2022-07-26T07:55:11.621Z,6.75
2022-07-26T07:57:45.375Z,6.03
2022-07-26T08:00:19.608Z,5.50
2022-07-26T08:02:57.470Z,5.90
2022-07-26T08:05:27.528Z,5.50
2022-07-26T08:07:57.429Z,5.47
2022-07-26T08:10:29.784Z,5.80
2022-07-26T08:13:00.311Z,6.07
2022-07-26T08:15:31.625Z,6.28
2022-07-26T08:18:01.533Z,5.47
2022-07-26T08:20:34.574Z,5.90
2022-07-26T08:23:04.665Z,6.40
2022-07-26T08:25:36.091Z,5.97
2022-07-26T08:28:09.301Z,5.75
2022-07-26T08:30:49.847Z,6.22
2022-07-26T08:33:20.054Z,5.50
2022-07-26T08:35:50.102Z,6.30
2022-07-26T08:38:20.588Z,5.75
2022-07-26T08:40:51.867Z,6.30
2022-07-26T08:43:21.968Z,6.50
2022-07-26T08:45:52.610Z,6.30
2022-07-26T08:48:22.566Z,6.00
2022-07-26T08:50:52.676Z,6.38
2022-07-26T08:53:23.228Z,6.70
2022-07-26T08:56:07.624Z,6.10
2022-07-26T08:58:41.066Z,6.00
2022-07-26T09:01:13.774Z,6.68
2022-07-26T09:03:44.638Z,6.30
2022-07-26T09:06:20.564Z,5.70
2022-07-26T09:08:52.890Z,5.70
2022-07-26T09:11:33.659Z,6.15
2022-07-26T09:14:06.747Z,6.60
2022-07-26T09:16:39.855Z,5.93
2022-07-26T09:19:22.925Z,6.78
2022-07-26T09:21:55.896Z,5.90
2022-07-26T09:24:38.869Z,6.20
2022-07-26T09:27:13.370Z,6.47
2022-07-26T09:29:49.089Z,6.22
2022-07-26T09:32:21.847Z,6.50
2022-07-26T09:34:58.905Z,5.93
2022-07-26T09:37:40.165Z,6.00
2022-07-26T09:40:13.478Z,6.13
2022-07-26T09:42:58.704Z,7.18
2022-07-26T09:45:30.337Z,6.13
2022-07-26T09:48:00.433Z,6.47
2022-07-26T09:54:07.070Z,6.15
2022-07-26T09:56:49.269Z,6.20
2022-07-26T09:59:21.666Z,5.78
2022-07-26T10:01:53.452Z,5.85
2022-07-26T10:04:24.251Z,6.35
2022-07-26T10:06:54.306Z,5.67
2022-07-26T10:09:25.961Z,7.25
2022-07-26T10:12:03.684Z,6.22
2022-07-26T10:14:46.438Z,5.78
2022-07-26T10:17:49.309Z,5.75
2022-07-26T10:20:47.171Z,6.20
2022-07-26T10:23:46.066Z,5.93
2022-07-26T10:26:45.833Z,5.57
2022-07-26T10:29:31.538Z,6.13
2022-07-26T10:32:21.972Z,6.43
2022-07-26T10:34:52.024Z,6.43
2022-07-26T10:37:30.068Z,6.15
2022-07-26T10:40:25.840Z,6.80
2022-07-26T10:43:39.117Z,6.63
2022-07-26T10:46:29.540Z,5.78
2022-07-26T10:49:04.121Z,5.70
2022-07-26T10:51:38.353Z,6.05
2022-07-26T10:54:12.183Z,6.53
2022-07-26T10:56:43.128Z,6.40
2022-07-26T10:59:20.318Z,6.55
2022-07-26T11:02:03.062Z,5.78
2022-07-26T11:04:33.214Z,6.68
2022-07-26T11:07:04.787Z,5.60
2022-07-26T11:09:37.166Z,6.15
2022-07-26T11:12:19.024Z,6.47
2022-07-26T11:14:50.715Z,5.95
2022-07-26T11:17:27.566Z,6.20
2022-07-26T11:19:58.729Z,5.82
2022-07-26T11:22:34.672Z,6.15
2022-07-26T11:25:06.364Z,6.03
2022-07-26T11:27:36.408Z,6.53
2022-07-26T11:30:10.114Z,5.97
2022-07-26T11:32:40.035Z,6.32
2022-07-26T11:35:10.990Z,5.70
2022-07-26T11:37:40.990Z,5.93
2022-07-26T11:40:12.739Z,6.35
2022-07-26T11:42:42.853Z,6.82
2022-07-26T11:45:15.340Z,6.22
2022-07-26T11:47:45.310Z,6.90
2022-07-26T11:50:21.916Z,5.60
2022-07-26T11:52:53.586Z,6.53
2022-07-26T11:55:30.612Z,5.97
2022-07-26T11:58:08.127Z,6.00
2022-07-26T12:00:40.209Z,7.03
2022-07-26T12:03:10.108Z,6.22
2022-07-26T12:05:41.886Z,5.28
2022-07-26T12:08:12.007Z,5.50
2022-07-26T12:10:42.225Z,6.07
2022-07-26T12:13:15.209Z,5.70
2022-07-26T12:15:52.114Z,6.18
2022-07-26T12:18:27.144Z,5.20
2022-07-26T12:21:05.474Z,5.35
2022-07-26T12:23:48.979Z,5.43
2022-07-26T12:26:27.374Z,6.22
2022-07-26T12:28:58.806Z,5.93
2022-07-26T12:34:02.286Z,5.57
2022-07-26T12:36:36.105Z,5.32
2022-07-26T12:39:07.009Z,5.80
2022-07-26T12:41:39.431Z,5.70
2022-07-26T12:44:12.900Z,5.45
2022-07-26T12:46:45.306Z,5.25
2022-07-26T12:49:15.699Z,5.43
2022-07-26T12:54:07.842Z,5.25
2022-07-26T12:56:38.401Z,5.57
2022-07-26T12:59:11.275Z,5.57
2022-07-26T13:01:47.867Z,5.28
2022-07-26T13:04:17.858Z,5.50
2022-07-26T13:06:47.930Z,5.45
2022-07-26T13:09:19.350Z,6.03
2022-07-26T13:14:19.027Z,5.40
2022-07-26T13:16:49.054Z,4.75
2022-07-26T13:19:19.134Z,5.35
2022-07-26T13:21:52.785Z,4.65
2022-07-26T13:24:24.774Z,5.32
2022-07-26T13:26:55.946Z,5.00
2022-07-26T13:29:26.077Z,5.43
2022-07-26T13:31:57.270Z,5.40
2022-07-26T13:34:30.495Z,4.60
2022-07-26T13:37:07.472Z,5.25
2022-07-26T13:39:40.136Z,5.18
2022-07-26T13:42:11.608Z,5.00
2022-07-26T13:44:41.689Z,4.63
2022-07-26T13:47:11.673Z,4.25
2022-07-26T13:49:41.841Z,4.32
2022-07-26T13:52:15.795Z,4.40
2022-07-26T13:54:48.408Z,4.30
2022-07-26T13:57:18.375Z,4.55
2022-07-26T13:59:48.324Z,4.80
2022-07-26T14:02:18.567Z,4.82
2022-07-26T14:04:48.884Z,4.25
2022-07-26T14:07:19.009Z,4.60
2022-07-26T14:09:50.571Z,4.63
2022-07-26T14:12:20.654Z,5.13
2022-07-26T14:14:51.748Z,4.25
2022-07-26T14:17:21.782Z,4.38
2022-07-26T14:19:52.074Z,4.13
2022-07-26T14:22:22.047Z,4.38
2022-07-26T14:24:53.488Z,4.90
2022-07-26T14:27:23.372Z,4.95
2022-07-26T14:29:53.331Z,4.47
2022-07-26T14:32:23.448Z,4.53
2022-07-26T14:34:54.220Z,4.65
2022-07-26T14:37:43.685Z,4.53
2022-07-26T14:40:18.322Z,4.65
2022-07-26T14:42:49.101Z,4.57
2022-07-26T14:45:19.693Z,4.20
2022-07-26T14:47:49.696Z,4.40
2022-07-26T14:50:19.790Z,4.28
2022-07-26T14:52:50.896Z,5.15
2022-07-26T14:55:25.342Z,5.28
2022-07-26T14:57:55.709Z,5.28
2022-07-26T15:00:25.801Z,5.43
2022-07-26T15:02:55.857Z,4.60
2022-07-26T15:05:28.108Z,4.30
2022-07-26T15:08:00.562Z,4.60
2022-07-26T15:10:35.790Z,4.57
2022-07-26T15:13:09.559Z,4.25
2022-07-26T15:15:39.562Z,4.93
2022-07-26T15:18:09.691Z,4.40
2022-07-26T15:20:42.169Z,3.55
2022-07-26T15:23:12.690Z,4.00
2022-07-26T15:25:44.246Z,4.50
2022-07-26T15:30:43.847Z,4.63
2022-07-26T15:33:14.859Z,4.22
2022-07-26T15:35:44.850Z,4.30
2022-07-26T15:38:14.872Z,4.60
2022-07-26T15:40:46.392Z,4.60
2022-07-26T15:46:13.583Z,4.00
2022-07-26T15:48:45.923Z,4.68
2022-07-26T15:54:13.700Z,4.28
2022-07-26T15:56:44.255Z,4.47
2022-07-26T15:59:14.712Z,4.90
2022-07-26T16:01:44.941Z,4.43
2022-07-26T16:04:15.354Z,4.53
2022-07-26T16:06:45.572Z,4.30
2022-07-26T16:09:24.090Z,4.28
2022-07-26T16:11:54.172Z,4.40
2022-07-26T16:14:24.332Z,4.53
2022-07-26T16:16:54.269Z,4.38
2022-07-26T16:19:24.530Z,4.35
2022-07-26T16:21:54.470Z,4.55
2022-07-26T16:24:26.537Z,4.60
2022-07-26T16:26:56.474Z,4.55
2022-07-26T16:29:26.567Z,4.43
2022-07-26T16:31:56.606Z,4.63
2022-07-26T16:34:26.968Z,4.75
2022-07-26T16:36:56.945Z,5.20
2022-07-26T16:39:28.521Z,5.40
2022-07-26T16:42:02.035Z,4.78
2022-07-26T16:44:37.395Z,5.18
2022-07-26T16:47:07.533Z,4.90
2022-07-26T16:49:37.511Z,5.45
2022-07-26T16:52:09.571Z,5.72
2022-07-26T16:54:43.352Z,5.53
2022-07-26T16:57:13.347Z,5.03
2022-07-26T16:59:43.330Z,5.22
2022-07-26T17:02:13.440Z,5.68
2022-07-26T17:04:43.371Z,5.43
2022-07-26T17:07:28.595Z,5.38
2022-07-26T17:10:00.533Z,5.75
2022-07-26T17:12:30.533Z,5.90
2022-07-26T17:15:00.991Z,6.07
2022-07-26T17:17:31.287Z,6.55
2022-07-26T17:20:01.213Z,5.95
2022-07-26T17:22:31.268Z,5.78
2022-07-26T17:25:03.235Z,6.45
2022-07-26T17:27:33.191Z,5.68
2022-07-26T17:30:06.478Z,6.20
2022-07-26T17:32:38.400Z,5.97
2022-07-26T17:35:10.486Z,5.82
2022-07-26T17:37:41.895Z,6.05
2022-07-26T17:40:16.505Z,5.95
2022-07-26T17:42:46.631Z,5.82
2022-07-26T17:45:16.708Z,5.93
2022-07-26T17:47:47.211Z,6.57
2022-07-26T17:53:07.119Z,6.05
2022-07-26T17:55:38.699Z,6.72
2022-07-26T17:58:08.770Z,6.70
2022-07-26T18:00:38.976Z,6.50
2022-07-26T18:03:09.130Z,6.30
2022-07-26T18:05:41.359Z,7.07
2022-07-26T18:08:11.735Z,5.90
2022-07-26T18:10:46.337Z,6.28
2022-07-26T18:13:18.931Z,6.00
2022-07-26T18:15:50.224Z,7.05
2022-07-26T18:18:20.517Z,7.00
2022-07-26T18:20:50.713Z,8.60
2022-07-26T18:23:20.807Z,7.25
2022-07-26T18:25:53.930Z,7.20
2022-07-26T18:28:23.812Z,6.50
2022-07-26T18:30:53.861Z,6.05
2022-07-26T18:33:23.952Z,6.72
2022-07-26T18:35:57.239Z,6.45
2022-07-26T18:38:27.138Z,7.47
2022-07-26T18:40:58.791Z,6.22
2022-07-26T18:43:28.783Z,6.93
2022-07-26T18:46:00.818Z,7.53
2022-07-26T18:48:34.633Z,7.32
2022-07-26T18:54:06.622Z,6.82
2022-07-26T18:56:36.496Z,7.13
2022-07-26T18:59:07.355Z,6.63
2022-07-26T19:01:39.107Z,6.78
2022-07-26T19:04:09.140Z,6.35
2022-07-26T19:06:40.308Z,6.82
2022-07-26T19:09:12.204Z,6.43
2022-07-26T19:11:45.951Z,6.70
2022-07-26T19:14:16.524Z,6.75
2022-07-26T19:16:46.534Z,6.15
2022-07-26T19:19:16.776Z,7.13
2022-07-26T19:21:48.730Z,6.70
2022-07-26T19:24:20.167Z,6.72
2022-07-26T19:26:50.209Z,6.93
2022-07-26T19:29:20.189Z,6.43
2022-07-26T19:31:50.137Z,6.15
2022-07-26T19:34:20.050Z,6.85
2022-07-26T19:36:51.368Z,6.22
2022-07-26T19:39:23.029Z,6.53
2022-07-26T19:41:53.497Z,6.30
2022-07-26T19:44:23.595Z,6.75
2022-07-26T19:46:57.543Z,6.75
2022-07-26T19:49:28.110Z,6.82
2022-07-26T19:51:58.347Z,6.22
2022-07-26T19:54:29.992Z,6.28
2022-07-26T19:56:59.884Z,6.90
2022-07-26T19:59:29.875Z,6.57
2022-07-26T20:01:59.925Z,6.07
2022-07-26T20:04:30.070Z,6.53
2022-07-26T20:07:00.108Z,6.03
2022-07-26T20:09:31.792Z,6.47
2022-07-26T20:12:02.251Z,6.50
2022-07-26T20:14:32.329Z,5.60
2022-07-26T20:17:02.607Z,6.30
2022-07-26T20:19:32.733Z,6.38
2022-07-26T20:22:02.951Z,6.30
2022-07-26T20:24:34.460Z,6.68
2022-07-26T20:27:04.449Z,6.28
2022-07-26T20:29:34.578Z,5.95
2022-07-26T20:32:04.806Z,5.88
2022-07-26T20:34:35.355Z,6.20
2022-07-26T20:37:05.389Z,5.90
2022-07-26T20:39:36.806Z,5.93
2022-07-26T20:42:07.411Z,5.47
2022-07-26T20:44:42.985Z,6.40
2022-07-26T20:47:13.065Z,5.55
2022-07-26T20:49:43.007Z,5.88
2022-07-26T20:52:13.389Z,5.63
2022-07-26T20:54:44.850Z,5.28
2022-07-26T20:57:14.766Z,5.30
2022-07-26T20:59:44.981Z,5.15
2022-07-26T21:02:14.920Z,5.13
2022-07-26T21:04:45.914Z,5.25
2022-07-26T21:07:16.531Z,5.15
2022-07-26T21:09:47.901Z,5.90
2022-07-26T21:12:17.804Z,5.50
2022-07-26T21:14:47.706Z,5.35
2022-07-26T21:17:18.195Z,4.72
2022-07-26T21:19:48.252Z,4.80
2022-07-26T21:22:18.208Z,4.85
2022-07-26T21:24:49.745Z,5.28
2022-07-26T21:27:19.572Z,4.75
2022-07-26T21:29:49.444Z,4.15
2022-07-26T21:32:19.334Z,4.47
2022-07-26T21:34:49.308Z,4.78
2022-07-26T21:37:19.487Z,4.75
2022-07-26T21:39:50.946Z,4.72
2022-07-26T21:42:20.893Z,4.70
2022-07-26T21:44:50.869Z,3.75
2022-07-26T21:47:20.760Z,4.10
2022-07-26T21:49:50.667Z,4.53
2022-07-26T21:54:06.308Z,4.00
2022-07-26T21:56:36.268Z,4.30
2022-07-26T21:59:06.751Z,4.70
2022-07-26T22:01:36.852Z,4.97
2022-07-26T22:04:07.169Z,4.10
2022-07-26T22:06:37.290Z,4.18
2022-07-26T22:09:09.167Z,4.38
2022-07-26T22:14:09.669Z,4.20
2022-07-26T22:16:40.401Z,4.18
2022-07-26T22:19:10.697Z,4.05
2022-07-26T22:21:41.169Z,4.20
2022-07-26T22:24:12.598Z,4.20
2022-07-26T22:26:42.828Z,4.77
2022-07-26T22:29:13.360Z,4.75
2022-07-26T22:31:43.524Z,4.18
2022-07-26T22:34:13.524Z,4.63
2022-07-26T22:36:45.547Z,4.20
2022-07-26T22:42:13.860Z,4.25
2022-07-26T22:44:36.579Z,4.40
2022-07-26T22:47:06.688Z,4.72
2022-07-26T22:49:36.702Z,4.55
2022-07-26T22:52:07.091Z,4.50
2022-07-26T22:54:38.507Z,4.32
2022-07-26T22:57:08.529Z,4.27
2022-07-26T22:59:38.669Z,4.40
2022-07-26T23:02:08.880Z,4.30
2022-07-26T23:04:38.926Z,4.60
2022-07-26T23:07:09.649Z,4.55
2022-07-26T23:09:41.721Z,4.30
2022-07-26T23:12:12.436Z,4.03
2022-07-26T23:14:42.485Z,5.03
2022-07-26T23:17:12.294Z,4.88
2022-07-26T23:19:42.544Z,3.95
2022-07-26T23:22:12.454Z,4.53
2022-07-26T23:27:19.949Z,4.50
2022-07-26T23:29:51.346Z,5.10
2022-07-26T23:32:21.414Z,4.30
2022-07-26T23:34:51.415Z,4.70
2022-07-26T23:37:21.967Z,4.50
2022-07-26T23:39:53.269Z,5.10
2022-07-26T23:42:23.310Z,4.68
2022-07-26T23:44:53.249Z,4.65
2022-07-26T23:47:23.327Z,4.60
2022-07-26T23:49:53.330Z,4.55
2022-07-26T23:52:25.581Z,4.78
2022-07-26T23:54:57.250Z,4.38
2022-07-26T23:57:27.246Z,5.13
2022-07-26T23:59:57.174Z,4.75
